sensor_id;sensor_type;location;lat;lon;timestamp;pressure;altitude;pressure_sealevel;temperature;humidity
71903;BME280;59778;50.310;18.780;2023-05-19T00:10:16;99703.09;;;8.78;100.00
71903;BME280;59778;50.310;18.780;2023-05-19T00:25:38;99707.09;;;8.91;100.00
71903;BME280;59778;50.310;18.780;2023-05-19T00:41:00;99685.38;;;8.83;100.00
71903;BME280;59778;50.310;18.780;2023-05-19T00:56:22;99673.97;;;8.72;100.00
71903;BME280;59778;50.310;18.780;2023-05-19T01:11:43;99654.88;;;8.47;100.00
71903;BME280;59778;50.310;18.780;2023-05-19T01:27:18;99645.34;;;8.61;100.00
71903;BME280;59778;50.310;18.780;2023-05-19T01:42:45;99640.16;;;8.50;100.00
71903;BME280;59778;50.310;18.780;2023-05-19T02:13:43;99647.00;;;8.62;100.00
71903;BME280;59778;50.310;18.780;2023-05-19T02:29:04;99610.38;;;8.50;100.00
71903;BME280;59778;50.310;18.780;2023-05-19T02:44:26;99611.09;;;8.52;100.00
71903;BME280;59778;50.310;18.780;2023-05-19T02:59:47;99614.31;;;8.56;100.00
71903;BME280;59778;50.310;18.780;2023-05-19T03:15:09;99615.38;;;8.63;100.00
71903;BME280;59778;50.310;18.780;2023-05-19T03:30:33;99611.47;;;8.57;100.00
71903;BME280;59778;50.310;18.780;2023-05-19T03:45:54;99627.34;;;8.52;100.00
71903;BME280;59778;50.310;18.780;2023-05-19T04:01:16;99633.50;;;8.70;100.00
71903;BME280;59778;50.310;18.780;2023-05-19T04:16:37;99638.16;;;8.86;100.00
71903;BME280;59778;50.310;18.780;2023-05-19T04:31:59;99633.25;;;8.89;100.00
71903;BME280;59778;50.310;18.780;2023-05-19T04:47:21;99638.75;;;9.14;100.00
71903;BME280;59778;50.310;18.780;2023-05-19T05:02:42;99646.59;;;9.33;100.00
71903;BME280;59778;50.310;18.780;2023-05-19T05:18:04;99645.13;;;9.46;100.00
71903;BME280;59778;50.310;18.780;2023-05-19T05:33:25;99656.66;;;9.65;100.00
71903;BME280;59778;50.310;18.780;2023-05-19T05:48:47;99644.47;;;10.09;100.00
71903;BME280;59778;50.310;18.780;2023-05-19T06:04:09;99660.22;;;10.54;100.00
71903;BME280;59778;50.310;18.780;2023-05-19T06:19:30;99672.44;;;10.66;99.63
71903;BME280;59778;50.310;18.780;2023-05-19T06:34:52;99678.16;;;10.71;98.82
71903;BME280;59778;50.310;18.780;2023-05-19T06:50:16;99676.09;;;10.90;98.95
71903;BME280;59778;50.310;18.780;2023-05-19T07:05:38;99659.84;;;11.12;97.45
71903;BME280;59778;50.310;18.780;2023-05-19T07:20:59;99653.84;;;11.56;97.43
71903;BME280;59778;50.310;18.780;2023-05-19T07:36:20;99655.69;;;11.86;94.80
71903;BME280;59778;50.310;18.780;2023-05-19T07:51:42;99679.75;;;11.74;96.10
71903;BME280;59778;50.310;18.780;2023-05-19T08:07:03;99679.84;;;12.12;96.06
71903;BME280;59778;50.310;18.780;2023-05-19T08:22:24;99684.91;;;12.15;91.50
71903;BME280;59778;50.310;18.780;2023-05-19T08:37:45;99689.84;;;12.34;90.80
71903;BME280;59778;50.310;18.780;2023-05-19T08:53:12;99691.03;;;12.54;90.41
71903;BME280;59778;50.310;18.780;2023-05-19T09:08:34;99677.13;;;12.93;91.65
71903;BME280;59778;50.310;18.780;2023-05-19T09:24:03;99681.47;;;12.88;90.78
71903;BME280;59778;50.310;18.780;2023-05-19T09:39:25;99686.16;;;13.08;89.79
71903;BME280;59778;50.310;18.780;2023-05-19T09:54:49;99687.97;;;13.16;90.27
71903;BME280;59778;50.310;18.780;2023-05-19T10:10:11;99674.34;;;13.31;87.69
71903;BME280;59778;50.310;18.780;2023-05-19T10:25:39;99672.03;;;13.49;86.20
71903;BME280;59778;50.310;18.780;2023-05-19T10:41:18;99670.97;;;13.64;86.00
71903;BME280;59778;50.310;18.780;2023-05-19T10:56:45;99660.09;;;13.71;84.40
71903;BME280;59778;50.310;18.780;2023-05-19T11:12:07;99661.28;;;14.04;83.30
71903;BME280;59778;50.310;18.780;2023-05-19T11:27:32;99655.81;;;14.26;84.10
71903;BME280;59778;50.310;18.780;2023-05-19T11:42:54;99653.31;;;14.31;84.71
71903;BME280;59778;50.310;18.780;2023-05-19T11:58:15;99656.84;;;14.46;82.90
71903;BME280;59778;50.310;18.780;2023-05-19T12:13:37;99656.19;;;14.72;84.77
71903;BME280;59778;50.310;18.780;2023-05-19T12:28:58;99648.59;;;15.01;84.01
71903;BME280;59778;50.310;18.780;2023-05-19T12:44:19;99631.03;;;15.24;83.11
71903;BME280;59778;50.310;18.780;2023-05-19T12:59:41;99644.75;;;15.37;81.69
71903;BME280;59778;50.310;18.780;2023-05-19T13:15:03;99639.03;;;15.25;83.51
71903;BME280;59778;50.310;18.780;2023-05-19T13:30:24;99622.59;;;15.25;83.72
71903;BME280;59778;50.310;18.780;2023-05-19T13:45:46;99608.97;;;15.38;81.85
71903;BME280;59778;50.310;18.780;2023-05-19T14:01:07;99610.75;;;15.59;80.71
71903;BME280;59778;50.310;18.780;2023-05-19T14:16:29;99616.94;;;15.27;80.90
71903;BME280;59778;50.310;18.780;2023-05-19T14:31:50;99626.84;;;15.28;81.02
71903;BME280;59778;50.310;18.780;2023-05-19T14:47:11;99625.50;;;15.10;83.21
71903;BME280;59778;50.310;18.780;2023-05-19T15:02:32;99627.78;;;15.07;83.84
71903;BME280;59778;50.310;18.780;2023-05-19T15:17:54;99617.56;;;14.81;84.18
71903;BME280;59778;50.310;18.780;2023-05-19T15:33:15;99617.91;;;14.72;87.28
71903;BME280;59778;50.310;18.780;2023-05-19T15:48:36;99610.28;;;14.60;86.87
71903;BME280;59778;50.310;18.780;2023-05-19T16:03:57;99610.78;;;14.43;88.04
71903;BME280;59778;50.310;18.780;2023-05-19T16:19:19;99623.75;;;14.13;88.94
71903;BME280;59778;50.310;18.780;2023-05-19T16:34:40;99637.16;;;14.08;90.53
71903;BME280;59778;50.310;18.780;2023-05-19T16:50:02;99631.97;;;13.92;91.28
71903;BME280;59778;50.310;18.780;2023-05-19T17:05:23;99627.16;;;13.73;92.78
71903;BME280;59778;50.310;18.780;2023-05-19T17:20:45;99632.59;;;13.51;93.83
71903;BME280;59778;50.310;18.780;2023-05-19T17:36:07;99635.09;;;13.32;95.02
71903;BME280;59778;50.310;18.780;2023-05-19T17:51:29;99641.13;;;13.27;96.14
71903;BME280;59778;50.310;18.780;2023-05-19T18:06:51;99652.41;;;13.09;97.23
71903;BME280;59778;50.310;18.780;2023-05-19T18:22:12;99669.81;;;12.79;98.82
71903;BME280;59778;50.310;18.780;2023-05-19T18:37:35;99676.84;;;12.59;100.00
71903;BME280;59778;50.310;18.780;2023-05-19T18:52:56;99684.72;;;12.68;99.87
71903;BME280;59778;50.310;18.780;2023-05-19T19:08:17;99701.91;;;12.40;100.00
71903;BME280;59778;50.310;18.780;2023-05-19T19:23:39;99695.97;;;12.36;100.00
71903;BME280;59778;50.310;18.780;2023-05-19T19:39:03;99691.13;;;12.23;100.00
71903;BME280;59778;50.310;18.780;2023-05-19T19:54:25;99689.59;;;12.21;100.00
71903;BME280;59778;50.310;18.780;2023-05-19T20:09:46;99694.00;;;12.07;100.00
71903;BME280;59778;50.310;18.780;2023-05-19T20:25:09;99683.81;;;12.01;100.00
71903;BME280;59778;50.310;18.780;2023-05-19T20:40:30;99690.31;;;12.00;100.00
71903;BME280;59778;50.310;18.780;2023-05-19T20:55:53;99688.78;;;11.75;100.00
71903;BME280;59778;50.310;18.780;2023-05-19T21:11:14;99691.88;;;11.72;100.00
71903;BME280;59778;50.310;18.780;2023-05-19T21:26:36;99693.16;;;11.84;100.00
71903;BME280;59778;50.310;18.780;2023-05-19T21:41:57;99697.25;;;11.80;100.00
71903;BME280;59778;50.310;18.780;2023-05-19T21:57:18;99685.63;;;11.86;100.00
71903;BME280;59778;50.310;18.780;2023-05-19T22:12:39;99706.59;;;11.77;100.00
71903;BME280;59778;50.310;18.780;2023-05-19T22:28:01;99695.75;;;11.39;100.00
71903;BME280;59778;50.310;18.780;2023-05-19T22:43:22;99685.63;;;11.55;100.00
71903;BME280;59778;50.310;18.780;2023-05-19T22:58:43;99672.28;;;11.68;100.00
71903;BME280;59778;50.310;18.780;2023-05-19T23:14:04;99667.22;;;11.34;100.00
71903;BME280;59778;50.310;18.780;2023-05-19T23:29:26;99672.06;;;11.16;100.00
71903;BME280;59778;50.310;18.780;2023-05-19T23:44:47;99652.69;;;11.19;100.00
